Napa, California
Current Conditions -  °F | °C
As of 7:54 AM on Saturday 20 Dec 2014 (Local Time) from KAPC Reporting Station
Haze Haze  
Wind Chill: 52°   Ceiling: 2500
Heat Index: 52°   Visibility: 2.5mi
Dew Point: 52°   Wind: 5mph
Humidity: 100%   Direction: 90°E
Pressure: 30.18"   Gusts: NA
Location:  38.3°N, 122.28°W
Report Text: KAPC 201554Z 09004KT 2 1/2SM BR FEW009 BKN025 OVC090 11/11 A3018 RMK AO2 SLP212 T01110111
Loading
Personal Weather Stations






























Interactive Weather Map New forecast layout! Learn more

10-Day Weather Forecast

Advertisements
Track Severe Weather on mobile